This is the latest recevied weather packets stored in our database for station/object WP3OF-5. If no packets are shown the sender has not sent any weather packets the latest 1 day(s).
| Time | Temp. | Humidity | Pressure | Rain* | Wind** | Luminosity | Snow |
|---|---|---|---|---|---|---|---|
| 1778019888 | 28.33° C | 82% | 1016.7 hPa | 0 mm | 0 m/s | - | - |
| 1778019584 | 28.33° C | 80% | 1016.5 hPa | 0 mm | 0.45 m/s, 220° | - | - |
| 1778019282 | 28.89° C | 80% | 1016.5 hPa | 0 mm | 0 m/s | - | - |
| 1778018979 | 28.89° C | 78% | 1016.5 hPa | 0 mm | 0 m/s | - | - |
| 1778018676 | 28.33° C | 79% | 1016.3 hPa | 0 mm | 0 m/s | - | - |
| 1778018373 | 28.33° C | 78% | 1016.4 hPa | 0 mm | 0.45 m/s, 277° | - | - |
| 1778018071 | 28.33° C | 79% | 1016.3 hPa | 0 mm | 0.45 m/s, 275° | - | - |
| 1778017769 | 28.33° C | 79% | 1016.2 hPa | 0 mm | 1.34 m/s, 265° | - | - |
| 1778017466 | 28.33° C | 81% | 1016.4 hPa | 0 mm | 0.89 m/s, 250° | - | - |
| 1778017163 | 28.89° C | 78% | 1016.1 hPa | 0 mm | 1.79 m/s, 21° | - | - |
| 1778016861 | 29.44° C | 77% | 1016.1 hPa | 0 mm | 0.45 m/s, 255° | - | - |
| 1778016557 | 29.44° C | 76% | 1016 hPa | 0 mm | 0.45 m/s, 279° | - | - |
| 1778016254 | 29.44° C | 78% | 1016 hPa | 0 mm | 0 m/s | - | - |
| 1778015950 | 28.89° C | 78% | 1016 hPa | 0 mm | 0.89 m/s, 222° | - | - |
| 1778015648 | 28.89° C | 79% | 1016 hPa | 0 mm | 0.45 m/s, 225° | - | - |
| 1778015344 | 28.89° C | 79% | 1016.3 hPa | 0 mm | 0.45 m/s, 75° | - | - |
| 1778015042 | 29.44° C | 77% | 1015.8 hPa | 0 mm | 0.45 m/s, 230° | - | - |
| 1778014738 | 30° C | 75% | 1015.9 hPa | 0 mm | 0.45 m/s, 38° | - | - |
| 1778014437 | 31.11° C | 72% | 1015.8 hPa | 0 mm | 0.45 m/s, 88° | - | - |
| 1778014133 | 31.67° C | 70% | 1015.8 hPa | 0 mm | 0.45 m/s, 123° | - | - |
| 1778013831 | 31.67° C | 69% | 1015.5 hPa | 0 mm | 0 m/s | - | - |
| 1778013528 | 32.22° C | 68% | 1015.4 hPa | 0 mm | 0 m/s | - | - |
| 1778013224 | 32.22° C | 69% | 1015.4 hPa | 0 mm | 0 m/s | - | - |
| 1778012921 | 31.67° C | 69% | 1015.4 hPa | 0 mm | 0.45 m/s, 183° | - | - |
| 1778012617 | 31.11° C | 72% | 1015.7 hPa | 0 mm | 0.45 m/s, 243° | - | - |
* Rain latest hour (hover to see other rain measurements)
** Current wind speed in m/s (hover to see current wind gust speed)